createdAt,value
2017-04-05T00:00:13.918Z,0.00
2017-04-05T00:01:03.129Z,0.00
2017-04-05T00:01:58.069Z,0.00
2017-04-05T00:02:47.037Z,0.00
2017-04-05T00:03:41.084Z,0.00
2017-04-05T00:04:30.163Z,0.00
2017-04-05T00:05:18.181Z,0.00
2017-04-05T00:06:07.298Z,0.00
2017-04-05T00:07:01.235Z,0.00
2017-04-05T00:08:01.216Z,0.00
2017-04-05T00:09:01.330Z,0.00
2017-04-05T00:09:55.566Z,0.00
2017-04-05T00:10:43.324Z,0.00
2017-04-05T00:11:37.415Z,0.00
2017-04-05T00:12:26.407Z,0.00
2017-04-05T00:13:26.438Z,0.00
2017-04-05T00:14:20.515Z,0.00
2017-04-05T00:15:15.489Z,0.00
2017-04-05T00:16:10.544Z,0.00
2017-04-05T00:17:05.667Z,0.00
2017-04-05T00:17:59.606Z,0.00
2017-04-05T00:18:54.597Z,0.00
2017-04-05T00:19:55.632Z,0.00
2017-04-05T00:20:50.709Z,0.00
2017-04-05T00:21:44.743Z,0.00
2017-04-05T00:22:38.788Z,0.00
2017-04-05T00:23:27.813Z,0.00
2017-04-05T00:24:15.908Z,0.00
2017-04-05T00:25:10.862Z,0.00
2017-04-05T00:25:58.949Z,0.00
2017-04-05T00:26:47.895Z,0.00
2017-04-05T00:27:47.993Z,0.00
2017-04-05T00:28:36.060Z,0.00
2017-04-05T00:29:30.034Z,0.00
2017-04-05T00:30:18.116Z,0.00
2017-04-05T00:31:07.166Z,0.00
2017-04-05T00:32:01.140Z,0.00
2017-04-05T00:32:49.262Z,0.00
2017-04-05T00:33:43.198Z,0.00
2017-04-05T00:34:37.244Z,0.00
2017-04-05T00:35:31.291Z,0.00
2017-04-05T00:36:31.287Z,0.00
2017-04-05T00:37:25.457Z,0.00
2017-04-05T00:38:19.399Z,0.00
2017-04-05T00:39:19.413Z,0.00
2017-04-05T00:40:14.451Z,0.00
2017-04-05T00:41:14.434Z,0.00
2017-04-05T00:42:20.466Z,0.00
2017-04-05T00:43:09.515Z,0.00
2017-04-05T00:44:03.544Z,0.00
2017-04-05T00:44:51.662Z,0.00
2017-04-05T00:45:40.809Z,0.00
2017-04-05T00:46:28.682Z,0.00
2017-04-05T00:47:22.743Z,0.00
2017-04-05T00:48:16.954Z,0.00
2017-04-05T00:49:05.814Z,0.00
2017-04-05T00:49:59.776Z,0.00
2017-04-05T00:50:48.834Z,0.00
2017-04-05T00:51:44.247Z,0.00
2017-04-05T00:52:43.974Z,0.00
2017-04-05T00:53:44.552Z,0.00
2017-04-05T00:54:37.948Z,0.00
2017-04-05T00:55:37.932Z,0.00
2017-04-05T00:56:33.042Z,0.00
2017-04-05T00:57:28.070Z,0.00
2017-04-05T00:58:28.029Z,0.00
2017-04-05T00:59:23.016Z,0.00
2017-04-05T01:00:17.164Z,0.00
2017-04-05T01:01:11.117Z,0.00
2017-04-05T01:02:11.199Z,0.00
2017-04-05T01:03:00.239Z,0.00
2017-04-05T01:03:54.256Z,0.00
2017-04-05T01:04:48.325Z,0.00
2017-04-05T01:05:42.352Z,0.00
2017-04-05T01:06:42.332Z,0.00
2017-04-05T01:07:37.369Z,0.00
2017-04-05T01:08:31.440Z,0.00
2017-04-05T01:09:26.461Z,0.00
2017-04-05T01:10:14.494Z,0.00
2017-04-05T01:11:03.538Z,0.00
2017-04-05T01:11:58.556Z,0.00
2017-04-05T01:12:58.546Z,0.00
2017-04-05T01:13:58.599Z,0.00
2017-04-05T01:14:58.632Z,0.00
2017-04-05T01:15:52.633Z,0.00
2017-04-05T01:16:41.683Z,0.00
2017-04-05T01:17:30.771Z,0.00
2017-04-05T01:18:24.732Z,0.00
2017-04-05T01:19:12.827Z,0.00
2017-04-05T01:20:00.896Z,0.00
2017-04-05T01:21:00.864Z,0.00
2017-04-05T01:21:55.909Z,0.00
2017-04-05T01:22:50.885Z,0.00
2017-04-05T01:23:45.883Z,0.00
2017-04-05T01:24:46.010Z,0.00
2017-04-05T01:25:40.041Z,0.00
2017-04-05T01:26:34.027Z,0.00
2017-04-05T01:27:28.057Z,0.00
2017-04-05T01:28:17.128Z,0.00
2017-04-05T01:29:23.403Z,0.00
2017-04-05T01:30:17.138Z,0.00
2017-04-05T01:31:11.204Z,0.00
2017-04-05T01:32:06.233Z,0.00
2017-04-05T01:33:06.243Z,0.00
2017-04-05T01:34:01.265Z,0.00
2017-04-05T01:34:55.343Z,0.00
2017-04-05T01:35:56.314Z,0.00
2017-04-05T01:36:50.418Z,0.00
2017-04-05T01:37:50.377Z,0.00
2017-04-05T01:38:44.412Z,0.00
2017-04-05T01:39:44.413Z,0.00
2017-04-05T01:40:39.529Z,0.00
2017-04-05T01:41:33.603Z,0.00
2017-04-05T01:42:28.524Z,0.00
2017-04-05T01:43:22.562Z,0.00
2017-04-05T01:44:17.654Z,0.00
2017-04-05T01:45:11.643Z,0.00
2017-04-05T01:46:00.655Z,0.00
2017-04-05T01:46:49.708Z,0.00
2017-04-05T01:47:38.768Z,0.00
2017-04-05T01:48:33.747Z,0.00
2017-04-05T01:49:33.826Z,0.00
2017-04-05T01:50:28.813Z,0.00
2017-04-05T01:51:24.131Z,0.00
2017-04-05T01:52:17.901Z,0.00
2017-04-05T01:53:12.005Z,0.00
2017-04-05T01:54:06.932Z,0.00
2017-04-05T01:55:01.977Z,0.00
2017-04-05T01:55:56.019Z,0.00
2017-04-05T01:56:56.052Z,0.00
2017-04-05T01:57:45.010Z,0.00
2017-04-05T01:58:39.123Z,0.00
2017-04-05T01:59:34.089Z,0.00
2017-04-05T02:00:34.114Z,0.00
2017-04-05T02:01:28.172Z,0.00
2017-04-05T02:02:22.179Z,0.00
2017-04-05T02:03:16.256Z,0.00
2017-04-05T02:04:10.337Z,0.00
2017-04-05T02:05:05.310Z,0.00
2017-04-05T02:05:59.321Z,0.00
2017-04-05T02:07:00.380Z,0.00
2017-04-05T02:07:55.446Z,0.00
2017-04-05T02:08:55.389Z,0.00
2017-04-05T02:09:50.523Z,0.00
2017-04-05T02:10:45.478Z,0.00
2017-04-05T02:11:39.538Z,0.00
2017-04-05T02:12:33.654Z,0.00
2017-04-05T02:13:33.599Z,0.00
2017-04-05T02:14:27.638Z,0.00
2017-04-05T02:15:33.633Z,0.00
2017-04-05T02:16:27.674Z,0.00
2017-04-05T02:17:22.684Z,0.00
2017-04-05T02:18:16.703Z,0.00
2017-04-05T02:19:16.745Z,0.00
2017-04-05T02:20:10.855Z,0.00
2017-04-05T02:21:10.832Z,0.00
2017-04-05T02:22:05.805Z,0.00
2017-04-05T02:22:54.831Z,0.00
2017-04-05T02:24:00.876Z,0.00
2017-04-05T02:24:49.867Z,0.00
2017-04-05T02:25:44.465Z,0.00
2017-04-05T02:26:38.006Z,0.00
2017-04-05T02:27:37.994Z,0.00
2017-04-05T02:28:32.040Z,0.00
2017-04-05T02:29:32.186Z,0.00
2017-04-05T02:30:27.102Z,0.00
2017-04-05T02:31:22.202Z,0.00
2017-04-05T02:32:22.207Z,0.00
2017-04-05T02:33:17.200Z,0.00
2017-04-05T02:34:12.255Z,0.00
2017-04-05T02:35:12.237Z,0.00
2017-04-05T02:36:07.289Z,0.00
2017-04-05T02:37:02.347Z,0.00
2017-04-05T02:38:03.328Z,0.00
2017-04-05T02:39:03.367Z,0.00
2017-04-05T02:40:03.379Z,0.00
2017-04-05T02:40:58.434Z,0.00
2017-04-05T02:41:52.459Z,0.00
2017-04-05T02:42:53.456Z,0.00
2017-04-05T02:43:53.495Z,0.00
2017-04-05T02:44:53.525Z,0.00
2017-04-05T02:45:48.501Z,0.00
2017-04-05T02:46:42.602Z,0.00
2017-04-05T02:47:42.612Z,0.00
2017-04-05T02:48:37.643Z,0.00
2017-04-05T02:49:32.708Z,0.00
2017-04-05T02:50:33.708Z,0.00
2017-04-05T02:51:33.718Z,0.00
2017-04-05T02:52:33.741Z,0.00
2017-04-05T02:53:28.728Z,0.00
2017-04-05T02:54:22.858Z,0.00
2017-04-05T02:55:23.858Z,0.00
2017-04-05T02:56:24.830Z,0.00
2017-04-05T02:57:19.901Z,0.00
2017-04-05T02:58:14.044Z,0.00
2017-04-05T02:59:13.946Z,0.00
2017-04-05T03:00:08.971Z,0.00
2017-04-05T03:01:15.004Z,0.00
2017-04-05T03:02:10.018Z,0.00
2017-04-05T03:03:04.051Z,0.00
2017-04-05T03:04:04.143Z,0.00
2017-04-05T03:05:04.156Z,0.00
2017-04-05T03:06:04.141Z,0.00
2017-04-05T03:07:05.158Z,0.00
2017-04-05T03:08:06.198Z,0.00
2017-04-05T03:09:00.236Z,0.00
2017-04-05T03:10:00.250Z,0.00
2017-04-05T03:10:55.263Z,0.00
2017-04-05T03:11:50.337Z,0.00
2017-04-05T03:12:50.314Z,0.00
2017-04-05T03:13:45.352Z,0.00
2017-04-05T03:14:40.421Z,0.00
2017-04-05T03:15:40.417Z,0.00
2017-04-05T03:16:35.559Z,0.00
2017-04-05T03:17:30.465Z,0.00
2017-04-05T03:18:31.465Z,0.00
2017-04-05T03:19:32.577Z,0.00
2017-04-05T03:20:27.545Z,0.00
2017-04-05T03:21:21.648Z,0.00
2017-04-05T03:22:21.590Z,0.00
2017-04-05T03:23:21.688Z,0.00
2017-04-05T03:24:16.705Z,0.00
2017-04-05T03:25:10.756Z,0.00
2017-04-05T03:26:10.761Z,0.00
2017-04-05T03:27:05.778Z,0.00
2017-04-05T03:28:00.842Z,0.00
2017-04-05T03:29:01.804Z,0.00
2017-04-05T03:30:01.840Z,0.00
2017-04-05T03:31:02.042Z,0.00
2017-04-05T03:31:56.926Z,0.00
2017-04-05T03:32:50.970Z,0.00
2017-04-05T03:33:50.962Z,0.00
2017-04-05T03:34:45.935Z,0.00
2017-04-05T03:35:46.083Z,0.00
2017-04-05T03:36:46.021Z,0.00
2017-04-05T03:37:46.198Z,0.00
2017-04-05T03:38:40.035Z,0.00
2017-04-05T03:39:40.134Z,0.00
2017-04-05T03:40:35.137Z,0.00
2017-04-05T03:41:35.180Z,0.00
2017-04-05T03:42:29.208Z,0.00
2017-04-05T03:43:29.225Z,0.00
2017-04-05T03:44:24.220Z,0.00
2017-04-05T03:45:19.223Z,0.00
2017-04-05T03:46:19.359Z,0.00
2017-04-05T03:47:14.723Z,0.00
2017-04-05T03:48:09.337Z,0.00
2017-04-05T03:49:10.354Z,0.00
2017-04-05T03:50:10.432Z,0.00
2017-04-05T03:51:10.439Z,0.00
2017-04-05T03:52:10.420Z,0.00
2017-04-05T03:53:11.469Z,0.00
2017-04-05T03:54:12.555Z,0.00
2017-04-05T03:55:12.588Z,0.00
2017-04-05T03:56:19.511Z,0.00
2017-04-05T03:57:19.540Z,0.00
2017-04-05T03:58:19.590Z,0.00
2017-04-05T03:59:13.619Z,0.00
2017-04-05T04:00:13.642Z,0.00
2017-04-05T04:01:08.680Z,0.00
2017-04-05T04:02:03.719Z,0.00
2017-04-05T04:03:04.696Z,0.00
2017-04-05T04:04:04.707Z,0.00
2017-04-05T04:05:04.791Z,0.00
2017-04-05T04:05:59.784Z,0.00
2017-04-05T04:06:53.822Z,0.00
2017-04-05T04:07:54.822Z,0.00
2017-04-05T04:08:54.898Z,0.00
2017-04-05T04:09:54.912Z,0.00
2017-04-05T04:10:49.948Z,0.00
2017-04-05T04:11:44.086Z,0.00
2017-04-05T04:12:44.126Z,0.00
2017-04-05T04:13:39.009Z,0.00
2017-04-05T04:14:34.158Z,0.00
2017-04-05T04:15:35.100Z,0.00
2017-04-05T04:16:35.148Z,0.00
2017-04-05T04:17:35.137Z,0.00
2017-04-05T04:18:30.137Z,0.00
2017-04-05T04:19:24.218Z,0.00
2017-04-05T04:20:24.226Z,0.00
2017-04-05T04:21:19.325Z,0.00
2017-04-05T04:22:19.334Z,0.00
2017-04-05T04:23:13.317Z,0.00
2017-04-05T04:24:13.436Z,0.00
2017-04-05T04:25:08.612Z,0.00
2017-04-05T04:26:03.368Z,0.00
2017-04-05T04:27:03.432Z,0.00
2017-04-05T04:27:58.495Z,0.00
2017-04-05T04:28:53.492Z,0.00
2017-04-05T04:29:54.481Z,0.00
2017-04-05T04:30:54.530Z,0.00
2017-04-05T04:31:54.662Z,0.00
2017-04-05T04:32:54.544Z,0.00
2017-04-05T04:33:54.625Z,0.00
2017-04-05T04:34:54.618Z,0.00
2017-04-05T04:35:54.670Z,0.00
2017-04-05T04:36:54.775Z,0.00
2017-04-05T04:37:54.715Z,0.00
2017-04-05T04:38:54.736Z,0.00
2017-04-05T04:39:54.756Z,0.00
2017-04-05T04:40:54.805Z,0.00
2017-04-05T04:41:54.928Z,0.00
2017-04-05T04:42:54.978Z,0.00
2017-04-05T04:43:54.812Z,0.00
2017-04-05T04:44:54.923Z,0.00
2017-04-05T04:45:54.905Z,0.00
2017-04-05T04:46:54.941Z,0.00
2017-04-05T04:47:54.933Z,0.00
2017-04-05T04:48:55.021Z,0.00
2017-04-05T04:49:55.027Z,0.00
2017-04-05T04:50:55.059Z,0.00
2017-04-05T04:51:55.166Z,0.00
2017-04-05T04:52:56.101Z,0.00
2017-04-05T04:53:51.102Z,0.00
2017-04-05T04:54:45.213Z,0.00
2017-04-05T04:55:46.190Z,0.00
2017-04-05T04:56:41.205Z,0.00
2017-04-05T04:57:41.213Z,0.00
2017-04-05T04:58:41.267Z,0.01
2017-04-05T04:59:41.408Z,0.01
2017-04-05T05:00:41.311Z,0.01
2017-04-05T05:01:41.357Z,0.01
2017-04-05T05:02:41.330Z,0.01
2017-04-05T05:03:41.418Z,0.01
2017-04-05T05:04:41.412Z,0.01
2017-04-05T05:05:41.432Z,0.01
2017-04-05T05:06:41.438Z,0.01
2017-04-05T05:07:41.481Z,0.01
2017-04-05T05:08:41.514Z,0.01
2017-04-05T05:09:41.540Z,0.01
2017-04-05T05:10:41.586Z,0.01
2017-04-05T05:11:41.620Z,0.01
2017-04-05T05:12:41.860Z,0.01
2017-04-05T05:13:41.651Z,0.01
2017-04-05T05:14:41.684Z,0.01
2017-04-05T05:15:41.726Z,0.02
2017-04-05T05:16:41.738Z,0.02
2017-04-05T05:17:41.773Z,0.02
2017-04-05T05:18:41.829Z,0.02
2017-04-05T05:19:41.821Z,0.02
2017-04-05T05:20:41.831Z,0.02
2017-04-05T05:21:41.853Z,0.03
2017-04-05T05:22:29.915Z,0.03
2017-04-05T05:23:24.977Z,0.03
2017-04-05T05:24:24.964Z,0.03
2017-04-05T05:25:18.956Z,0.04
2017-04-05T05:26:14.021Z,0.04
2017-04-05T05:27:09.745Z,0.04
2017-04-05T05:28:03.120Z,0.04
2017-04-05T05:29:04.174Z,0.04
2017-04-05T05:29:59.235Z,0.04
2017-04-05T05:30:53.189Z,0.04
2017-04-05T05:31:47.235Z,0.04
2017-04-05T05:32:47.249Z,0.05
2017-04-05T05:33:41.312Z,0.05
2017-04-05T05:34:41.320Z,0.05
2017-04-05T05:35:35.345Z,0.05
2017-04-05T05:36:35.361Z,0.05
2017-04-05T05:37:29.442Z,0.04
2017-04-05T05:38:17.430Z,0.04
2017-04-05T05:39:11.564Z,0.05
2017-04-05T05:40:11.489Z,0.05
2017-04-05T05:41:05.518Z,0.05
2017-04-05T05:41:59.539Z,0.05
2017-04-05T05:42:48.618Z,0.05
2017-04-05T05:43:42.640Z,0.05
2017-04-05T05:44:36.642Z,0.05
2017-04-05T05:45:36.712Z,0.06
2017-04-05T05:46:24.805Z,0.06
2017-04-05T05:47:19.726Z,0.06
2017-04-05T05:48:19.825Z,0.07
2017-04-05T05:49:13.789Z,0.07
2017-04-05T05:50:14.845Z,0.07
2017-04-05T05:51:10.542Z,0.08
2017-04-05T05:52:09.948Z,0.08
2017-04-05T05:53:10.593Z,0.07
2017-04-05T05:54:09.978Z,0.07
2017-04-05T05:55:10.410Z,0.07
2017-04-05T05:56:10.020Z,0.06
2017-04-05T05:57:10.740Z,0.06
2017-04-05T05:58:10.219Z,0.05
2017-04-05T05:59:10.744Z,0.05
2017-04-05T06:00:10.171Z,0.05
2017-04-05T06:01:10.847Z,0.05
2017-04-05T06:02:04.248Z,0.05
2017-04-05T06:02:58.335Z,0.05
2017-04-05T06:03:53.382Z,0.05
2017-04-05T06:04:48.354Z,0.06
2017-04-05T06:05:36.347Z,0.06
2017-04-05T06:06:36.356Z,0.06
2017-04-05T06:07:25.383Z,0.06
2017-04-05T06:08:20.430Z,0.06
2017-04-05T06:09:14.429Z,0.06
2017-04-05T06:10:14.538Z,0.06
2017-04-05T06:11:10.136Z,0.06
2017-04-05T06:12:09.580Z,0.06
2017-04-05T06:13:10.111Z,0.07
2017-04-05T06:14:09.893Z,0.07
2017-04-05T06:15:03.705Z,0.07
2017-04-05T06:16:03.733Z,0.08
2017-04-05T06:16:58.728Z,0.08
2017-04-05T06:17:53.786Z,0.09
2017-04-05T06:18:53.912Z,0.10
2017-04-05T06:19:54.305Z,0.10
2017-04-05T06:20:53.818Z,0.11
2017-04-05T06:21:53.869Z,0.11
2017-04-05T06:22:47.954Z,0.11
2017-04-05T06:23:47.937Z,0.12
2017-04-05T06:24:43.016Z,0.11
2017-04-05T06:25:38.334Z,0.11
2017-04-05T06:26:32.040Z,0.11
2017-04-05T06:27:32.123Z,0.11
2017-04-05T06:28:27.096Z,0.11
2017-04-05T06:29:27.146Z,0.11
2017-04-05T06:30:22.260Z,0.11
2017-04-05T06:31:16.197Z,0.11
2017-04-05T06:32:10.260Z,0.12
2017-04-05T06:33:04.338Z,0.12
2017-04-05T06:33:58.328Z,0.13
2017-04-05T06:34:47.500Z,0.13
2017-04-05T06:35:41.415Z,0.14
2017-04-05T06:36:47.787Z,0.15
2017-04-05T06:37:42.641Z,0.15
2017-04-05T06:38:36.602Z,0.15
2017-04-05T06:39:25.519Z,0.16
2017-04-05T06:40:25.592Z,0.17
2017-04-05T06:41:19.743Z,0.17
2017-04-05T06:42:08.728Z,0.18
2017-04-05T06:42:56.727Z,0.18
2017-04-05T06:43:56.706Z,0.18
2017-04-05T06:44:51.809Z,0.18
2017-04-05T06:45:45.818Z,0.17
2017-04-05T06:46:40.818Z,0.17
2017-04-05T06:47:29.919Z,0.16
2017-04-05T06:48:24.930Z,0.16
2017-04-05T06:49:19.913Z,0.15
2017-04-05T06:50:14.028Z,0.15
2017-04-05T06:51:14.644Z,0.16
2017-04-05T06:52:08.123Z,0.16
2017-04-05T06:53:03.214Z,0.17
2017-04-05T06:54:04.162Z,0.17
2017-04-05T06:54:59.211Z,0.16
2017-04-05T06:55:59.257Z,0.15
2017-04-05T06:56:59.277Z,0.14
2017-04-05T06:57:54.301Z,0.13
2017-04-05T06:58:48.329Z,0.13
2017-04-05T06:59:42.397Z,0.13
2017-04-05T07:00:31.408Z,0.13
2017-04-05T07:01:20.396Z,0.12
2017-04-05T07:02:14.594Z,0.12
2017-04-05T07:03:15.207Z,0.12
2017-04-05T07:04:08.612Z,0.12
2017-04-05T07:04:56.634Z,0.12
2017-04-05T07:05:45.696Z,0.12
2017-04-05T07:06:33.758Z,0.11
2017-04-05T07:07:22.769Z,0.11
2017-04-05T07:08:17.849Z,0.10
2017-04-05T07:09:12.201Z,0.10
2017-04-05T07:10:00.846Z,0.09
2017-04-05T07:11:00.948Z,0.10
2017-04-05T07:11:56.093Z,0.10
2017-04-05T07:12:51.043Z,0.11
2017-04-05T07:13:39.016Z,0.11
2017-04-05T07:14:39.074Z,0.11
2017-04-05T07:15:33.127Z,0.11
2017-04-05T07:16:28.159Z,0.11
2017-04-05T07:17:23.214Z,0.12
2017-04-05T07:18:12.315Z,0.11
2017-04-05T07:19:12.271Z,0.11
2017-04-05T07:20:06.323Z,0.11
2017-04-05T07:20:54.331Z,0.11
2017-04-05T07:21:49.315Z,0.11
2017-04-05T07:22:43.364Z,0.10
2017-04-05T07:23:43.418Z,0.10
2017-04-05T07:24:31.485Z,0.11
2017-04-05T07:25:20.843Z,0.11
2017-04-05T07:26:20.565Z,0.11
2017-04-05T07:27:15.249Z,0.11
2017-04-05T07:28:15.636Z,0.12
2017-04-05T07:29:16.283Z,0.13
2017-04-05T07:30:03.676Z,0.14
2017-04-05T07:30:52.747Z,0.15
2017-04-05T07:31:41.861Z,0.15
2017-04-05T07:32:30.882Z,0.16
2017-04-05T07:33:25.315Z,0.16
2017-04-05T07:34:24.979Z,0.16
2017-04-05T07:35:14.319Z,0.17
2017-04-05T07:36:07.984Z,0.17
2017-04-05T07:37:03.087Z,0.17
2017-04-05T07:37:51.138Z,0.18
2017-04-05T07:38:45.142Z,0.18
2017-04-05T07:39:33.191Z,0.18
2017-04-05T07:40:28.250Z,0.18
2017-04-05T07:41:22.259Z,0.19
2017-04-05T07:42:11.310Z,0.20
2017-04-05T07:43:05.385Z,0.19
2017-04-05T07:44:00.361Z,0.19
2017-04-05T07:44:54.445Z,0.19
2017-04-05T07:45:48.454Z,0.20
2017-04-05T07:46:43.512Z,0.20
2017-04-05T07:47:31.584Z,0.20
2017-04-05T07:48:31.597Z,0.22
2017-04-05T07:49:19.649Z,0.25
2017-04-05T07:50:19.665Z,0.26
2017-04-05T07:51:08.712Z,0.27
2017-04-05T07:51:57.756Z,0.27
2017-04-05T07:52:52.783Z,0.31
2017-04-05T07:53:47.869Z,0.36
2017-04-05T07:54:47.875Z,0.39
2017-04-05T07:55:41.933Z,0.44
2017-04-05T07:56:36.937Z,0.40
2017-04-05T07:57:32.016Z,0.39
2017-04-05T07:58:26.073Z,0.34
2017-04-05T07:59:20.024Z,0.33
2017-04-05T08:00:20.133Z,0.33
2017-04-05T08:01:15.516Z,0.36
2017-04-05T08:02:10.116Z,0.35
2017-04-05T08:03:10.240Z,0.35
2017-04-05T08:04:04.240Z,0.35
2017-04-05T08:04:53.301Z,0.37
2017-04-05T08:05:41.330Z,0.37
2017-04-05T08:06:35.617Z,0.38
2017-04-05T08:07:24.441Z,0.38
2017-04-05T08:08:12.587Z,0.35
2017-04-05T08:09:06.587Z,0.34
2017-04-05T08:10:00.592Z,0.31
2017-04-05T08:11:00.637Z,0.29
2017-04-05T08:11:49.654Z,0.25
2017-04-05T08:12:38.737Z,0.22
2017-04-05T08:13:34.116Z,0.19
2017-04-05T08:14:22.834Z,0.17
2017-04-05T08:15:11.901Z,0.17
2017-04-05T08:16:06.901Z,0.17
2017-04-05T08:17:06.937Z,0.17
2017-04-05T08:18:02.075Z,0.17
2017-04-05T08:18:57.276Z,0.16
2017-04-05T08:19:46.098Z,0.17
2017-04-05T08:20:40.153Z,0.17
2017-04-05T08:21:34.197Z,0.18
2017-04-05T08:22:29.248Z,0.18
2017-04-05T08:23:29.252Z,0.18
2017-04-05T08:24:18.358Z,0.17
2017-04-05T08:25:12.313Z,0.16
2017-04-05T08:26:06.392Z,0.16
2017-04-05T08:26:54.401Z,0.16
2017-04-05T08:27:54.457Z,0.16
2017-04-05T08:28:49.463Z,0.17
2017-04-05T08:29:37.616Z,0.17
2017-04-05T08:30:32.605Z,0.18
2017-04-05T08:31:32.635Z,0.18
2017-04-05T08:32:27.737Z,0.19
2017-04-05T08:33:27.691Z,0.19
2017-04-05T08:34:21.765Z,0.18
2017-04-05T08:35:21.812Z,0.18
2017-04-05T08:36:09.851Z,0.18
2017-04-05T08:37:09.841Z,0.20
2017-04-05T08:38:03.908Z,0.20
2017-04-05T08:38:57.953Z,0.21
2017-04-05T08:39:57.998Z,0.22
2017-04-05T08:40:47.042Z,0.23
2017-04-05T08:41:47.047Z,0.23
2017-04-05T08:42:36.110Z,0.22
2017-04-05T08:43:30.167Z,0.22
2017-04-05T08:44:30.178Z,0.21
2017-04-05T08:45:18.909Z,0.20
2017-04-05T08:46:12.229Z,0.19
2017-04-05T08:47:06.345Z,0.19
2017-04-05T08:48:01.332Z,0.19
2017-04-05T08:48:49.389Z,0.19
2017-04-05T08:49:43.422Z,0.19
2017-04-05T08:50:31.850Z,0.20
2017-04-05T08:51:20.155Z,0.20
2017-04-05T08:52:13.570Z,0.21
2017-04-05T08:53:14.624Z,0.22
2017-04-05T08:54:15.675Z,0.23
2017-04-05T08:55:15.728Z,0.25
2017-04-05T08:56:10.726Z,0.26
2017-04-05T08:56:58.756Z,0.27
2017-04-05T08:57:59.855Z,0.28
2017-04-05T08:58:53.872Z,0.29
2017-04-05T08:59:47.952Z,0.28
2017-04-05T09:00:42.983Z,0.27
2017-04-05T09:01:37.629Z,0.27
2017-04-05T09:02:37.045Z,0.26
2017-04-05T09:03:25.038Z,0.25
2017-04-05T09:04:20.142Z,0.25
2017-04-05T09:05:14.170Z,0.26
2017-04-05T09:06:08.208Z,0.27
2017-04-05T09:07:02.242Z,0.27
2017-04-05T09:07:56.290Z,0.27
2017-04-05T09:08:51.335Z,0.28
2017-04-05T09:09:39.376Z,0.29
2017-04-05T09:10:39.382Z,0.30
2017-04-05T09:11:34.473Z,0.31
2017-04-05T09:12:29.541Z,0.38
2017-04-05T09:13:23.748Z,0.35
2017-04-05T09:14:23.671Z,0.54
2017-04-05T09:15:23.879Z,0.36
2017-04-05T09:16:18.629Z,0.42
2017-04-05T09:17:13.732Z,0.42
2017-04-05T09:18:07.824Z,0.50
2017-04-05T09:19:07.814Z,0.40
2017-04-05T09:20:01.867Z,0.41
2017-04-05T09:20:57.035Z,0.52
2017-04-05T09:21:50.956Z,0.37
2017-04-05T09:22:44.978Z,0.41
2017-04-05T09:23:40.342Z,0.36
2017-04-05T09:24:35.062Z,0.44
2017-04-05T09:25:30.120Z,0.55
2017-04-05T09:26:24.148Z,0.51
2017-04-05T09:27:24.534Z,0.58
2017-04-05T09:28:24.266Z,0.59
2017-04-05T09:29:24.582Z,0.62
2017-04-05T09:30:24.336Z,0.61
2017-04-05T09:31:18.369Z,0.64
2017-04-05T09:32:18.435Z,0.64
2017-04-05T09:33:12.438Z,0.64
2017-04-05T09:34:07.549Z,0.40
2017-04-05T09:35:01.560Z,0.64
2017-04-05T09:35:56.589Z,0.61
2017-04-05T09:36:45.694Z,0.37
2017-04-05T09:37:40.706Z,0.58
2017-04-05T09:38:35.765Z,0.58
2017-04-05T09:39:35.781Z,0.55
2017-04-05T09:40:29.881Z,0.45
2017-04-05T09:41:24.398Z,0.47
2017-04-05T09:42:12.945Z,0.38
2017-04-05T09:43:07.014Z,0.39
2017-04-05T09:44:07.108Z,0.62
2017-04-05T09:45:01.046Z,0.65
2017-04-05T09:45:56.099Z,0.54
2017-04-05T09:46:51.179Z,0.61
2017-04-05T09:47:46.247Z,0.61
2017-04-05T09:48:35.270Z,0.38
2017-04-05T09:49:29.257Z,0.37
2017-04-05T09:50:18.417Z,0.36
2017-04-05T09:51:18.422Z,0.47
2017-04-05T09:52:12.460Z,0.47
2017-04-05T09:53:12.594Z,0.47
2017-04-05T09:54:01.514Z,0.51
2017-04-05T09:54:55.589Z,0.50
2017-04-05T09:55:50.661Z,0.49
2017-04-05T09:56:38.748Z,0.32
2017-04-05T09:57:32.781Z,0.43
2017-04-05T09:58:32.831Z,0.45
2017-04-05T09:59:32.883Z,0.49
2017-04-05T10:00:27.922Z,0.51
2017-04-05T10:01:16.925Z,0.48
2017-04-05T10:02:11.024Z,0.30
2017-04-05T10:03:06.058Z,0.54
2017-04-05T10:04:01.168Z,0.56
2017-04-05T10:04:55.137Z,0.57
2017-04-05T10:05:49.251Z,0.54
2017-04-05T10:06:49.235Z,0.58
2017-04-05T10:07:38.454Z,0.59
2017-04-05T10:08:26.310Z,0.59
2017-04-05T10:09:27.507Z,0.57
2017-04-05T10:10:22.399Z,0.61
2017-04-05T10:11:17.592Z,0.63
2017-04-05T10:12:06.565Z,0.28
2017-04-05T10:13:00.656Z,0.61
2017-04-05T10:13:55.671Z,0.62
2017-04-05T10:14:50.828Z,0.59
2017-04-05T10:15:45.747Z,0.58
2017-04-05T10:16:39.822Z,0.61
2017-04-05T10:17:34.815Z,0.65
2017-04-05T10:18:34.949Z,0.77
2017-04-05T10:19:28.918Z,0.67
2017-04-05T10:20:23.996Z,0.36
2017-04-05T10:21:19.099Z,0.31
2017-04-05T10:22:13.118Z,0.29
2017-04-05T10:23:01.159Z,0.31
2017-04-05T10:23:55.216Z,0.75
2017-04-05T10:24:44.257Z,0.79
2017-04-05T10:25:39.368Z,0.81
2017-04-05T10:26:28.403Z,0.75
2017-04-05T10:27:22.452Z,0.77
2017-04-05T10:28:16.469Z,0.33
2017-04-05T10:29:10.857Z,0.51
2017-04-05T10:30:10.569Z,0.68
2017-04-05T10:30:59.637Z,0.49
2017-04-05T10:31:53.633Z,0.75
2017-04-05T10:32:48.714Z,0.31
2017-04-05T10:33:42.763Z,0.59
2017-04-05T10:34:32.164Z,0.78
2017-04-05T10:35:27.488Z,0.76
2017-04-05T10:36:21.937Z,0.55
2017-04-05T10:37:16.986Z,0.37
2017-04-05T10:38:11.024Z,0.48
2017-04-05T10:39:00.101Z,0.72
2017-04-05T10:39:54.441Z,0.78
2017-04-05T10:40:54.183Z,0.56
2017-04-05T10:41:48.233Z,0.74
2017-04-05T10:42:42.281Z,0.49
2017-04-05T10:43:31.289Z,0.89
2017-04-05T10:44:19.394Z,0.86
2017-04-05T10:45:13.456Z,0.41
2017-04-05T10:46:02.561Z,0.34
2017-04-05T10:46:57.619Z,0.35
2017-04-05T10:47:52.619Z,0.76
2017-04-05T10:48:52.637Z,0.91
2017-04-05T10:49:46.733Z,0.69
2017-04-05T10:50:35.783Z,0.38
2017-04-05T10:51:30.574Z,0.36
2017-04-05T10:52:18.931Z,0.38
2017-04-05T10:53:13.929Z,0.34
2017-04-05T10:54:02.960Z,0.73
2017-04-05T10:55:03.043Z,0.33
2017-04-05T10:55:57.448Z,0.36
2017-04-05T10:56:45.171Z,0.90
2017-04-05T10:57:45.205Z,0.42
2017-04-05T10:58:39.207Z,0.38
2017-04-05T10:59:33.338Z,0.36
2017-04-05T11:00:27.320Z,0.38
2017-04-05T11:01:21.386Z,0.82
2017-04-05T11:02:15.496Z,0.48
2017-04-05T11:03:15.480Z,0.37
2017-04-05T11:04:04.560Z,0.34
2017-04-05T11:04:53.611Z,0.36
2017-04-05T11:05:48.632Z,0.37
2017-04-05T11:06:36.932Z,0.35
2017-04-05T11:07:30.782Z,0.38
2017-04-05T11:08:18.814Z,0.54
2017-04-05T11:09:12.852Z,0.39
2017-04-05T11:10:06.933Z,0.35
2017-04-05T11:11:00.939Z,0.36
2017-04-05T11:11:50.529Z,0.39
2017-04-05T11:12:39.063Z,0.36
2017-04-05T11:13:33.434Z,0.35
2017-04-05T11:14:27.171Z,0.32
2017-04-05T11:15:21.276Z,0.27
2017-04-05T11:16:15.290Z,0.22
2017-04-05T11:17:09.457Z,0.22
2017-04-05T11:18:03.350Z,0.23
2017-04-05T11:18:52.440Z,0.24
2017-04-05T11:19:46.597Z,0.47
2017-04-05T11:20:35.513Z,0.34
2017-04-05T11:21:30.242Z,0.78
2017-04-05T11:22:18.684Z,0.78
2017-04-05T11:23:12.719Z,0.81
2017-04-05T11:24:07.831Z,0.30
2017-04-05T11:24:56.746Z,0.82
2017-04-05T11:25:51.832Z,0.78
2017-04-05T11:26:40.845Z,0.83
2017-04-05T11:27:34.997Z,0.81
2017-04-05T11:28:28.954Z,0.77
2017-04-05T11:29:29.647Z,0.78
2017-04-05T11:30:17.061Z,0.85
2017-04-05T11:31:11.086Z,0.87
2017-04-05T11:32:06.160Z,0.82
2017-04-05T11:32:54.272Z,0.36
2017-04-05T11:33:48.245Z,0.29
2017-04-05T11:34:48.345Z,0.26
2017-04-05T11:35:42.366Z,0.24
2017-04-05T11:36:31.403Z,0.22
2017-04-05T11:37:20.473Z,0.23
2017-04-05T11:38:15.866Z,0.22
2017-04-05T11:39:09.563Z,0.23
2017-04-05T11:39:57.655Z,0.24
2017-04-05T11:40:52.694Z,0.24
2017-04-05T11:41:41.734Z,0.24
2017-04-05T11:42:30.806Z,0.25
2017-04-05T11:43:26.487Z,0.25
2017-04-05T11:44:25.898Z,0.27
2017-04-05T11:45:19.913Z,0.26
2017-04-05T11:46:14.987Z,0.33
2017-04-05T11:47:10.088Z,0.61
2017-04-05T11:48:04.045Z,0.62
2017-04-05T11:48:59.451Z,0.63
2017-04-05T11:49:53.169Z,0.61
2017-04-05T11:50:48.235Z,0.62
2017-04-05T11:51:37.256Z,0.60
2017-04-05T11:52:32.361Z,0.65
2017-04-05T11:53:26.385Z,0.54
2017-04-05T11:54:14.486Z,0.76
2017-04-05T11:55:15.466Z,0.79
2017-04-05T11:56:03.582Z,0.34
2017-04-05T11:56:52.612Z,0.34
2017-04-05T11:57:40.621Z,0.37
2017-04-05T11:58:29.709Z,0.36
2017-04-05T11:59:30.416Z,0.36
2017-04-05T12:00:23.826Z,0.33
2017-04-05T12:01:17.881Z,0.27
2017-04-05T12:02:06.935Z,0.26
2017-04-05T12:03:00.939Z,0.27
2017-04-05T12:03:49.038Z,0.26
2017-04-05T12:04:44.057Z,0.26
2017-04-05T12:05:38.140Z,0.25
2017-04-05T12:06:33.153Z,0.26
2017-04-05T12:07:27.261Z,0.25
2017-04-05T12:08:21.275Z,0.27
2017-04-05T12:09:16.335Z,0.33
2017-04-05T12:10:04.686Z,0.78
2017-04-05T12:10:53.417Z,0.81
2017-04-05T12:11:42.466Z,0.80
2017-04-05T12:12:42.581Z,0.90
2017-04-05T12:13:36.876Z,0.92
2017-04-05T12:14:30.630Z,0.95
2017-04-05T12:15:19.660Z,0.48